world map with IXM marked

IXM - Airport

This information may not be accurate or current and is not valid for navigation or flight planning. No warranty of fitness for any purpose is made or implied.

flag of India

Donate via PayPal

Additional information is available on the NEW Great Circle Mapper

Location
City:  Madurai, Tamil Nadu, India
ICAO / IATA:VOMD / IXM

Details
Type:Airport (Aerodrome, Airfield)
Latitude:9°50'04"N (9.834508)
Longitude:78°05'36"E (78.093378)
Datum:WGS 1984
Elevation:459 ft (140 m)
Runways:2
Longest:5990 × 148 ft (1826 × 45 m)

Time
Timezone:UTC+5:30 (DST+7:30)
Local Time:

Weather
METAR:VOMD  251030Z 28008KT 8000 FEW018 32/22 Q1003 NOSIG
TAF:VOMD  (expired)

Related Locations
Nearby:
Farthest:SEII: 11472 mi / 18462 km
Puerto Villamil [General Villamil], Isabela Island, W, EC

Find:

   beyond  
but within

Other Information
Maps:
Sources:

  


 


Great Circle Mapper   Great Circle Mapper
Great Circle Mapper FAQ   Great Circle Mapper FAQ
  Karl's Home Page
KLSē   KLSē Home
   GC on Facebook
Airlines of the World   Airlines of the World
Donate via PayPal


Copyright © 2004-2017, Karl L. Swartz. All rights reserved.
All trademarks mentioned herein belong to their respective owners.

Please see credits for attribution and copyright information.

Karl Swartz <karl@kls2.com>
  Powered by FreeBSD
Valid HTML 4.01!
Labeled with ICRA
hCard Microformat
Geo Microformat